sensor_id;sensor_type;location;lat;lon;timestamp;pressure;altitude;pressure_sealevel;temperature;humidity
76205;BME280;64986;55.672;37.628;2023-10-31T00:01:20;98834.53;;;9.49;nan
76205;BME280;64986;55.672;37.628;2023-10-31T00:03:46;98820.31;;;9.56;nan
76205;BME280;64986;55.672;37.628;2023-10-31T00:06:11;98829.22;;;9.55;nan
76205;BME280;64986;55.672;37.628;2023-10-31T00:08:37;98818.06;;;9.60;nan
76205;BME280;64986;55.672;37.628;2023-10-31T00:11:03;98828.28;;;9.43;nan
76205;BME280;64986;55.672;37.628;2023-10-31T00:13:28;98820.03;;;9.39;nan
76205;BME280;64986;55.672;37.628;2023-10-31T00:15:54;98832.38;;;9.39;nan
76205;BME280;64986;55.672;37.628;2023-10-31T00:18:19;98807.44;;;9.23;nan
76205;BME280;64986;55.672;37.628;2023-10-31T00:20:46;98828.56;;;9.35;nan
76205;BME280;64986;55.672;37.628;2023-10-31T00:23:11;98832.53;;;9.44;nan
76205;BME280;64986;55.672;37.628;2023-10-31T00:25:37;98847.16;;;9.33;nan
76205;BME280;64986;55.672;37.628;2023-10-31T00:28:03;98848.41;;;9.31;nan
76205;BME280;64986;55.672;37.628;2023-10-31T00:30:28;98848.28;;;9.44;nan
76205;BME280;64986;55.672;37.628;2023-10-31T00:32:54;98831.34;;;9.40;nan
76205;BME280;64986;55.672;37.628;2023-10-31T00:35:21;98853.03;;;9.60;nan
76205;BME280;64986;55.672;37.628;2023-10-31T00:37:47;98850.53;;;9.40;nan
76205;BME280;64986;55.672;37.628;2023-10-31T00:40:12;98859.22;;;9.41;nan
76205;BME280;64986;55.672;37.628;2023-10-31T00:42:39;98864.13;;;9.37;nan
76205;BME280;64986;55.672;37.628;2023-10-31T00:45:07;98868.03;;;9.53;nan
76205;BME280;64986;55.672;37.628;2023-10-31T00:47:33;98871.69;;;9.52;nan
76205;BME280;64986;55.672;37.628;2023-10-31T00:49:58;98866.03;;;9.49;nan
76205;BME280;64986;55.672;37.628;2023-10-31T00:52:24;98870.94;;;9.45;nan
76205;BME280;64986;55.672;37.628;2023-10-31T00:54:50;98851.78;;;9.38;nan
76205;BME280;64986;55.672;37.628;2023-10-31T00:57:15;98878.16;;;9.50;nan
76205;BME280;64986;55.672;37.628;2023-10-31T00:59:41;98872.00;;;9.37;nan
76205;BME280;64986;55.672;37.628;2023-10-31T01:02:06;98885.13;;;9.37;nan
76205;BME280;64986;55.672;37.628;2023-10-31T01:04:32;98893.34;;;9.48;nan
76205;BME280;64986;55.672;37.628;2023-10-31T01:06:57;98903.25;;;9.45;nan
76205;BME280;64986;55.672;37.628;2023-10-31T01:09:23;98900.72;;;9.32;nan
76205;BME280;64986;55.672;37.628;2023-10-31T01:11:48;98903.50;;;9.37;nan
76205;BME280;64986;55.672;37.628;2023-10-31T01:14:14;98900.22;;;9.42;nan
76205;BME280;64986;55.672;37.628;2023-10-31T01:16:42;98896.91;;;9.22;nan
76205;BME280;64986;55.672;37.628;2023-10-31T01:19:08;98900.81;;;9.44;nan
76205;BME280;64986;55.672;37.628;2023-10-31T01:21:33;98908.25;;;9.54;nan
76205;BME280;64986;55.672;37.628;2023-10-31T01:23:59;98909.38;;;9.33;nan
76205;BME280;64986;55.672;37.628;2023-10-31T01:26:25;98921.69;;;9.39;nan
76205;BME280;64986;55.672;37.628;2023-10-31T01:28:51;98918.16;;;9.52;nan
76205;BME280;64986;55.672;37.628;2023-10-31T01:31:17;98919.06;;;9.39;nan
76205;BME280;64986;55.672;37.628;2023-10-31T01:33:42;98918.44;;;9.37;nan
76205;BME280;64986;55.672;37.628;2023-10-31T01:36:08;98920.66;;;9.40;nan
76205;BME280;64986;55.672;37.628;2023-10-31T01:38:35;98922.09;;;9.36;nan
76205;BME280;64986;55.672;37.628;2023-10-31T01:41:01;98934.88;;;9.26;nan
76205;BME280;64986;55.672;37.628;2023-10-31T01:43:34;98945.00;;;9.22;nan
76205;BME280;64986;55.672;37.628;2023-10-31T01:45:59;98942.38;;;9.22;nan
76205;BME280;64986;55.672;37.628;2023-10-31T01:48:27;98934.78;;;9.07;nan
76205;BME280;64986;55.672;37.628;2023-10-31T01:50:54;98946.88;;;9.08;nan
76205;BME280;64986;55.672;37.628;2023-10-31T01:53:19;98952.91;;;9.15;nan
76205;BME280;64986;55.672;37.628;2023-10-31T01:55:45;98949.72;;;9.07;nan
76205;BME280;64986;55.672;37.628;2023-10-31T01:58:12;98950.72;;;9.06;nan
76205;BME280;64986;55.672;37.628;2023-10-31T02:00:40;98956.38;;;9.09;nan
76205;BME280;64986;55.672;37.628;2023-10-31T02:03:08;98960.41;;;9.05;nan
76205;BME280;64986;55.672;37.628;2023-10-31T02:05:35;98953.16;;;9.01;nan
76205;BME280;64986;55.672;37.628;2023-10-31T02:08:01;98969.97;;;8.93;nan
76205;BME280;64986;55.672;37.628;2023-10-31T02:10:27;98977.38;;;9.03;nan
76205;BME280;64986;55.672;37.628;2023-10-31T02:12:52;98984.50;;;8.89;nan
76205;BME280;64986;55.672;37.628;2023-10-31T02:15:18;98968.13;;;8.94;nan
76205;BME280;64986;55.672;37.628;2023-10-31T02:17:43;98991.91;;;9.05;nan
76205;BME280;64986;55.672;37.628;2023-10-31T02:20:09;98975.00;;;8.95;nan
76205;BME280;64986;55.672;37.628;2023-10-31T02:22:35;98971.97;;;8.91;nan
76205;BME280;64986;55.672;37.628;2023-10-31T02:25:00;98995.63;;;8.84;nan
76205;BME280;64986;55.672;37.628;2023-10-31T02:27:26;98994.59;;;8.85;nan
76205;BME280;64986;55.672;37.628;2023-10-31T02:29:51;99003.28;;;8.86;nan
76205;BME280;64986;55.672;37.628;2023-10-31T02:32:17;99001.47;;;8.86;nan
76205;BME280;64986;55.672;37.628;2023-10-31T02:34:44;98997.63;;;8.89;nan
76205;BME280;64986;55.672;37.628;2023-10-31T02:37:10;98994.03;;;8.77;nan
76205;BME280;64986;55.672;37.628;2023-10-31T02:39:37;98978.25;;;8.83;nan
76205;BME280;64986;55.672;37.628;2023-10-31T02:42:03;99004.53;;;8.77;nan
76205;BME280;64986;55.672;37.628;2023-10-31T02:44:29;99012.78;;;8.74;nan
76205;BME280;64986;55.672;37.628;2023-10-31T02:46:54;99005.94;;;8.66;nan
76205;BME280;64986;55.672;37.628;2023-10-31T02:49:20;99008.16;;;8.69;nan
76205;BME280;64986;55.672;37.628;2023-10-31T02:51:46;99003.69;;;8.76;nan
76205;BME280;64986;55.672;37.628;2023-10-31T02:54:11;99006.13;;;8.84;nan
76205;BME280;64986;55.672;37.628;2023-10-31T02:56:37;99026.69;;;9.01;nan
76205;BME280;64986;55.672;37.628;2023-10-31T02:59:02;99029.69;;;9.04;nan
76205;BME280;64986;55.672;37.628;2023-10-31T03:01:29;99025.22;;;9.11;nan
76205;BME280;64986;55.672;37.628;2023-10-31T03:03:54;99036.53;;;9.05;nan
76205;BME280;64986;55.672;37.628;2023-10-31T03:06:21;99039.97;;;9.12;nan
76205;BME280;64986;55.672;37.628;2023-10-31T03:08:46;99049.66;;;9.18;nan
76205;BME280;64986;55.672;37.628;2023-10-31T03:11:23;99047.63;;;9.14;nan
76205;BME280;64986;55.672;37.628;2023-10-31T03:13:50;99048.03;;;9.17;nan
76205;BME280;64986;55.672;37.628;2023-10-31T03:16:15;99048.25;;;9.09;nan
76205;BME280;64986;55.672;37.628;2023-10-31T03:18:41;99053.31;;;9.11;nan
76205;BME280;64986;55.672;37.628;2023-10-31T03:21:07;99028.28;;;9.02;nan
76205;BME280;64986;55.672;37.628;2023-10-31T03:23:33;99052.88;;;9.14;nan
76205;BME280;64986;55.672;37.628;2023-10-31T03:25:58;99044.63;;;9.10;nan
76205;BME280;64986;55.672;37.628;2023-10-31T03:28:24;99050.25;;;9.14;nan
76205;BME280;64986;55.672;37.628;2023-10-31T03:30:50;99054.09;;;9.11;nan
76205;BME280;64986;55.672;37.628;2023-10-31T03:33:15;99064.59;;;9.18;nan
76205;BME280;64986;55.672;37.628;2023-10-31T03:35:44;99058.13;;;9.21;nan
76205;BME280;64986;55.672;37.628;2023-10-31T03:38:10;99056.94;;;9.16;nan
76205;BME280;64986;55.672;37.628;2023-10-31T03:40:35;99067.22;;;9.25;nan
76205;BME280;64986;55.672;37.628;2023-10-31T03:43:01;99067.22;;;9.11;nan
76205;BME280;64986;55.672;37.628;2023-10-31T03:45:27;99060.16;;;9.18;nan
76205;BME280;64986;55.672;37.628;2023-10-31T03:47:52;99062.97;;;9.24;nan
76205;BME280;64986;55.672;37.628;2023-10-31T03:50:17;99060.94;;;9.19;nan
76205;BME280;64986;55.672;37.628;2023-10-31T03:52:43;99070.28;;;9.08;nan
76205;BME280;64986;55.672;37.628;2023-10-31T03:55:08;99078.16;;;9.08;nan
76205;BME280;64986;55.672;37.628;2023-10-31T03:57:34;99085.59;;;9.18;nan
76205;BME280;64986;55.672;37.628;2023-10-31T04:00:00;99081.81;;;9.07;nan
76205;BME280;64986;55.672;37.628;2023-10-31T04:02:26;99086.63;;;9.10;nan
76205;BME280;64986;55.672;37.628;2023-10-31T04:04:51;99089.63;;;9.14;nan
76205;BME280;64986;55.672;37.628;2023-10-31T04:07:17;99089.84;;;9.12;nan
76205;BME280;64986;55.672;37.628;2023-10-31T04:09:42;99090.88;;;9.11;nan
76205;BME280;64986;55.672;37.628;2023-10-31T04:12:08;99083.63;;;9.07;nan
76205;BME280;64986;55.672;37.628;2023-10-31T04:14:34;99101.78;;;9.15;nan
76205;BME280;64986;55.672;37.628;2023-10-31T04:16:59;99091.06;;;9.10;nan
76205;BME280;64986;55.672;37.628;2023-10-31T04:19:25;99090.66;;;9.06;nan
76205;BME280;64986;55.672;37.628;2023-10-31T04:21:53;99084.44;;;8.94;nan
76205;BME280;64986;55.672;37.628;2023-10-31T04:24:18;99111.66;;;9.06;nan
76205;BME280;64986;55.672;37.628;2023-10-31T04:26:44;99104.41;;;9.08;nan
76205;BME280;64986;55.672;37.628;2023-10-31T04:29:09;99114.72;;;9.10;nan
76205;BME280;64986;55.672;37.628;2023-10-31T04:31:35;99109.66;;;9.08;nan
76205;BME280;64986;55.672;37.628;2023-10-31T04:34:00;99121.78;;;9.09;nan
76205;BME280;64986;55.672;37.628;2023-10-31T04:36:26;99120.97;;;9.15;nan
76205;BME280;64986;55.672;37.628;2023-10-31T04:38:51;99118.94;;;9.11;nan
76205;BME280;64986;55.672;37.628;2023-10-31T04:41:17;99125.00;;;9.11;nan
76205;BME280;64986;55.672;37.628;2023-10-31T04:43:43;99133.47;;;9.13;nan
76205;BME280;64986;55.672;37.628;2023-10-31T04:46:08;99124.19;;;9.17;nan
76205;BME280;64986;55.672;37.628;2023-10-31T04:48:34;99132.44;;;9.21;nan
76205;BME280;64986;55.672;37.628;2023-10-31T04:50:59;99128.00;;;9.22;nan
76205;BME280;64986;55.672;37.628;2023-10-31T04:53:25;99139.34;;;9.22;nan
76205;BME280;64986;55.672;37.628;2023-10-31T04:55:50;99141.34;;;9.27;nan
76205;BME280;64986;55.672;37.628;2023-10-31T04:58:16;99146.59;;;9.33;nan
76205;BME280;64986;55.672;37.628;2023-10-31T05:00:41;99134.03;;;9.35;nan
76205;BME280;64986;55.672;37.628;2023-10-31T05:03:07;99143.16;;;9.33;nan
76205;BME280;64986;55.672;37.628;2023-10-31T05:05:32;99119.34;;;9.14;nan
76205;BME280;64986;55.672;37.628;2023-10-31T05:07:58;99148.41;;;9.20;nan
76205;BME280;64986;55.672;37.628;2023-10-31T05:10:24;99162.56;;;9.18;nan
76205;BME280;64986;55.672;37.628;2023-10-31T05:12:50;99159.34;;;9.16;nan
76205;BME280;64986;55.672;37.628;2023-10-31T05:15:19;99157.72;;;9.09;nan
76205;BME280;64986;55.672;37.628;2023-10-31T05:17:44;99148.84;;;9.16;nan
76205;BME280;64986;55.672;37.628;2023-10-31T05:20:10;99157.72;;;9.22;nan
76205;BME280;64986;55.672;37.628;2023-10-31T05:22:36;99139.94;;;9.11;nan
76205;BME280;64986;55.672;37.628;2023-10-31T05:25:02;99162.34;;;9.33;nan
76205;BME280;64986;55.672;37.628;2023-10-31T05:27:28;99164.16;;;9.39;nan
76205;BME280;64986;55.672;37.628;2023-10-31T05:29:54;99154.47;;;9.40;nan
76205;BME280;64986;55.672;37.628;2023-10-31T05:32:20;99166.72;;;9.59;nan
76205;BME280;64986;55.672;37.628;2023-10-31T05:34:45;99178.03;;;9.66;nan
76205;BME280;64986;55.672;37.628;2023-10-31T05:37:11;99175.59;;;9.78;nan
76205;BME280;64986;55.672;37.628;2023-10-31T05:39:36;99185.50;;;9.83;nan
76205;BME280;64986;55.672;37.628;2023-10-31T05:42:02;99193.75;;;9.86;nan
76205;BME280;64986;55.672;37.628;2023-10-31T05:44:28;99203.84;;;9.89;nan
76205;BME280;64986;55.672;37.628;2023-10-31T05:46:54;99188.31;;;9.74;nan
76205;BME280;64986;55.672;37.628;2023-10-31T05:49:19;99201.88;;;9.85;nan
76205;BME280;64986;55.672;37.628;2023-10-31T05:51:50;99187.13;;;9.77;nan
76205;BME280;64986;55.672;37.628;2023-10-31T05:54:16;99209.72;;;9.98;nan
76205;BME280;64986;55.672;37.628;2023-10-31T05:56:41;99212.09;;;10.06;nan
76205;BME280;64986;55.672;37.628;2023-10-31T05:59:07;99216.34;;;10.07;nan
76205;BME280;64986;55.672;37.628;2023-10-31T06:01:33;99212.13;;;9.99;nan
76205;BME280;64986;55.672;37.628;2023-10-31T06:03:58;99235.34;;;10.16;nan
76205;BME280;64986;55.672;37.628;2023-10-31T06:06:24;99237.16;;;10.15;nan
76205;BME280;64986;55.672;37.628;2023-10-31T06:08:49;99244.03;;;10.16;nan
76205;BME280;64986;55.672;37.628;2023-10-31T06:11:15;99240.16;;;10.19;nan
76205;BME280;64986;55.672;37.628;2023-10-31T06:13:41;99256.38;;;10.22;nan
76205;BME280;64986;55.672;37.628;2023-10-31T06:16:07;99262.44;;;10.30;nan
76205;BME280;64986;55.672;37.628;2023-10-31T06:18:33;99256.75;;;10.33;nan
76205;BME280;64986;55.672;37.628;2023-10-31T06:20:59;99256.69;;;10.46;nan
76205;BME280;64986;55.672;37.628;2023-10-31T06:23:25;99252.25;;;10.46;nan
76205;BME280;64986;55.672;37.628;2023-10-31T06:25:51;99258.06;;;10.55;nan
76205;BME280;64986;55.672;37.628;2023-10-31T06:28:16;99234.44;;;10.42;nan
76205;BME280;64986;55.672;37.628;2023-10-31T06:30:42;99257.03;;;10.56;nan
76205;BME280;64986;55.672;37.628;2023-10-31T06:33:07;99248.94;;;10.57;nan
76205;BME280;64986;55.672;37.628;2023-10-31T06:35:33;99245.75;;;10.49;nan
76205;BME280;64986;55.672;37.628;2023-10-31T06:38:00;99248.94;;;10.57;nan
76205;BME280;64986;55.672;37.628;2023-10-31T06:40:26;99256.00;;;10.64;nan
76205;BME280;64986;55.672;37.628;2023-10-31T06:42:52;99262.69;;;10.66;nan
76205;BME280;64986;55.672;37.628;2023-10-31T06:45:18;99257.34;;;10.73;nan
76205;BME280;64986;55.672;37.628;2023-10-31T06:47:43;99254.88;;;10.84;nan
76205;BME280;64986;55.672;37.628;2023-10-31T06:50:09;99260.28;;;10.96;nan
76205;BME280;64986;55.672;37.628;2023-10-31T06:52:35;99260.88;;;10.98;nan
76205;BME280;64986;55.672;37.628;2023-10-31T06:55:01;99262.91;;;10.96;nan
76205;BME280;64986;55.672;37.628;2023-10-31T06:57:26;99275.66;;;10.99;nan
76205;BME280;64986;55.672;37.628;2023-10-31T06:59:52;99276.69;;;10.92;nan
76205;BME280;64986;55.672;37.628;2023-10-31T07:02:18;99280.88;;;11.06;nan
76205;BME280;64986;55.672;37.628;2023-10-31T07:04:43;99284.69;;;11.10;nan
76205;BME280;64986;55.672;37.628;2023-10-31T07:07:09;99299.66;;;11.16;nan
76205;BME280;64986;55.672;37.628;2023-10-31T07:09:34;99300.44;;;11.17;nan
76205;BME280;64986;55.672;37.628;2023-10-31T07:12:00;99309.34;;;11.22;nan
76205;BME280;64986;55.672;37.628;2023-10-31T07:14:25;99315.19;;;11.24;nan
76205;BME280;64986;55.672;37.628;2023-10-31T07:16:51;99305.63;;;11.30;nan
76205;BME280;64986;55.672;37.628;2023-10-31T07:19:16;99302.75;;;11.38;nan
76205;BME280;64986;55.672;37.628;2023-10-31T07:21:42;99317.91;;;11.43;nan
76205;BME280;64986;55.672;37.628;2023-10-31T07:24:08;99323.16;;;11.49;nan
76205;BME280;64986;55.672;37.628;2023-10-31T07:26:37;99316.78;;;11.57;nan
76205;BME280;64986;55.672;37.628;2023-10-31T07:29:02;99321.19;;;11.63;nan
76205;BME280;64986;55.672;37.628;2023-10-31T07:31:28;99329.72;;;11.65;nan
76205;BME280;64986;55.672;37.628;2023-10-31T07:33:53;99330.59;;;11.77;nan
76205;BME280;64986;55.672;37.628;2023-10-31T07:36:19;99328.50;;;11.61;nan
76205;BME280;64986;55.672;37.628;2023-10-31T07:38:45;99327.34;;;11.82;nan
76205;BME280;64986;55.672;37.628;2023-10-31T07:41:10;99329.88;;;11.95;nan
76205;BME280;64986;55.672;37.628;2023-10-31T07:43:36;99338.59;;;11.96;nan
76205;BME280;64986;55.672;37.628;2023-10-31T07:46:01;99339.81;;;12.36;nan
76205;BME280;64986;55.672;37.628;2023-10-31T07:48:27;99340.22;;;12.15;nan
76205;BME280;64986;55.672;37.628;2023-10-31T07:50:53;99326.22;;;12.14;nan
76205;BME280;64986;55.672;37.628;2023-10-31T07:53:18;99342.97;;;12.45;nan
76205;BME280;64986;55.672;37.628;2023-10-31T07:55:44;99343.19;;;12.43;nan
76205;BME280;64986;55.672;37.628;2023-10-31T07:58:09;99347.31;;;12.39;nan
76205;BME280;64986;55.672;37.628;2023-10-31T08:00:35;99342.81;;;12.58;nan
76205;BME280;64986;55.672;37.628;2023-10-31T08:03:02;99350.75;;;12.58;nan
76205;BME280;64986;55.672;37.628;2023-10-31T08:05:27;99348.44;;;12.62;nan
76205;BME280;64986;55.672;37.628;2023-10-31T08:07:53;99369.97;;;12.04;nan
76205;BME280;64986;55.672;37.628;2023-10-31T08:10:19;99368.22;;;12.16;nan
76205;BME280;64986;55.672;37.628;2023-10-31T08:12:44;99366.78;;;12.20;nan
76205;BME280;64986;55.672;37.628;2023-10-31T08:15:10;99368.78;;;12.25;nan
76205;BME280;64986;55.672;37.628;2023-10-31T08:17:35;99370.09;;;12.34;nan
76205;BME280;64986;55.672;37.628;2023-10-31T08:20:02;99364.25;;;12.07;nan
76205;BME280;64986;55.672;37.628;2023-10-31T08:22:29;99361.56;;;12.13;nan
76205;BME280;64986;55.672;37.628;2023-10-31T08:24:54;99376.00;;;12.11;nan
76205;BME280;64986;55.672;37.628;2023-10-31T08:27:20;99370.16;;;12.27;nan
76205;BME280;64986;55.672;37.628;2023-10-31T08:29:45;99368.78;;;12.61;nan
76205;BME280;64986;55.672;37.628;2023-10-31T08:32:11;99365.34;;;12.79;nan
76205;BME280;64986;55.672;37.628;2023-10-31T08:34:37;99365.34;;;12.42;nan
76205;BME280;64986;55.672;37.628;2023-10-31T08:37:03;99366.06;;;12.49;nan
76205;BME280;64986;55.672;37.628;2023-10-31T08:39:28;99365.25;;;12.67;nan
76205;BME280;64986;55.672;37.628;2023-10-31T08:41:56;99344.19;;;12.61;nan
76205;BME280;64986;55.672;37.628;2023-10-31T08:44:22;99348.44;;;12.80;nan
76205;BME280;64986;55.672;37.628;2023-10-31T08:46:48;99369.19;;;12.95;nan
76205;BME280;64986;55.672;37.628;2023-10-31T08:49:17;99366.19;;;12.91;nan
76205;BME280;64986;55.672;37.628;2023-10-31T08:51:43;99365.59;;;12.89;nan
76205;BME280;64986;55.672;37.628;2023-10-31T08:54:09;99366.09;;;12.98;nan
76205;BME280;64986;55.672;37.628;2023-10-31T08:56:35;99383.50;;;12.87;nan
76205;BME280;64986;55.672;37.628;2023-10-31T08:59:00;99369.03;;;12.90;nan
76205;BME280;64986;55.672;37.628;2023-10-31T09:01:27;99366.06;;;12.86;nan
76205;BME280;64986;55.672;37.628;2023-10-31T09:03:54;99371.00;;;12.64;nan
76205;BME280;64986;55.672;37.628;2023-10-31T09:06:20;99364.81;;;12.34;nan
76205;BME280;64986;55.672;37.628;2023-10-31T09:08:46;99346.69;;;12.37;nan
76205;BME280;64986;55.672;37.628;2023-10-31T09:11:12;99365.19;;;12.37;nan
76205;BME280;64986;55.672;37.628;2023-10-31T09:13:37;99362.75;;;12.54;nan
76205;BME280;64986;55.672;37.628;2023-10-31T09:16:03;99373.19;;;12.49;nan
76205;BME280;64986;55.672;37.628;2023-10-31T09:18:29;99361.00;;;12.30;nan
76205;BME280;64986;55.672;37.628;2023-10-31T09:20:54;99369.97;;;12.47;nan
76205;BME280;64986;55.672;37.628;2023-10-31T09:23:20;99377.56;;;12.18;nan
76205;BME280;64986;55.672;37.628;2023-10-31T09:25:46;99374.63;;;12.27;nan
76205;BME280;64986;55.672;37.628;2023-10-31T09:28:12;99374.63;;;12.27;nan
76205;BME280;64986;55.672;37.628;2023-10-31T09:30:38;99375.72;;;12.37;nan
76205;BME280;64986;55.672;37.628;2023-10-31T09:33:03;99378.97;;;12.39;nan
76205;BME280;64986;55.672;37.628;2023-10-31T09:35:29;99375.41;;;12.70;nan
76205;BME280;64986;55.672;37.628;2023-10-31T09:37:54;99372.09;;;13.05;nan
76205;BME280;64986;55.672;37.628;2023-10-31T09:40:20;99367.38;;;13.55;nan
76205;BME280;64986;55.672;37.628;2023-10-31T09:42:47;99359.34;;;13.97;nan
76205;BME280;64986;55.672;37.628;2023-10-31T09:45:13;99368.19;;;15.02;nan
76205;BME280;64986;55.672;37.628;2023-10-31T09:47:40;99361.81;;;16.49;nan
76205;BME280;64986;55.672;37.628;2023-10-31T09:50:07;99358.38;;;15.93;nan
76205;BME280;64986;55.672;37.628;2023-10-31T09:52:35;99365.53;;;15.02;nan
76205;BME280;64986;55.672;37.628;2023-10-31T09:55:01;99360.94;;;14.45;nan
76205;BME280;64986;55.672;37.628;2023-10-31T09:57:28;99367.53;;;13.96;nan
76205;BME280;64986;55.672;37.628;2023-10-31T09:59:53;99359.06;;;13.40;nan
76205;BME280;64986;55.672;37.628;2023-10-31T10:02:19;99359.81;;;13.71;nan
76205;BME280;64986;55.672;37.628;2023-10-31T10:04:44;99361.31;;;14.60;nan
76205;BME280;64986;55.672;37.628;2023-10-31T10:07:15;99361.69;;;14.81;nan
76205;BME280;64986;55.672;37.628;2023-10-31T10:09:42;99369.00;;;15.02;nan
76205;BME280;64986;55.672;37.628;2023-10-31T10:12:11;99379.19;;;15.22;nan
76205;BME280;64986;55.672;37.628;2023-10-31T10:14:40;99374.03;;;15.15;nan
76205;BME280;64986;55.672;37.628;2023-10-31T10:17:25;99367.66;;;15.16;nan
76205;BME280;64986;55.672;37.628;2023-10-31T10:20:07;99375.06;;;15.14;nan
76205;BME280;64986;55.672;37.628;2023-10-31T10:22:40;99378.38;;;14.93;nan
76205;BME280;64986;55.672;37.628;2023-10-31T10:25:10;99377.38;;;15.39;nan
76205;BME280;64986;55.672;37.628;2023-10-31T10:27:37;99368.53;;;17.22;nan
76205;BME280;64986;55.672;37.628;2023-10-31T10:30:04;99355.75;;;17.78;nan
76205;BME280;64986;55.672;37.628;2023-10-31T10:32:30;99348.66;;;18.36;nan
76205;BME280;64986;55.672;37.628;2023-10-31T10:34:55;99342.84;;;18.49;nan
76205;BME280;64986;55.672;37.628;2023-10-31T10:37:21;99351.53;;;18.77;nan
76205;BME280;64986;55.672;37.628;2023-10-31T10:39:51;99343.66;;;18.45;nan
76205;BME280;64986;55.672;37.628;2023-10-31T10:42:47;99332.69;;;18.41;nan
76205;BME280;64986;55.672;37.628;2023-10-31T10:45:15;99342.06;;;20.03;nan
76205;BME280;64986;55.672;37.628;2023-10-31T10:47:48;99333.53;;;19.71;nan
76205;BME280;64986;55.672;37.628;2023-10-31T10:50:15;99327.72;;;18.08;nan
76205;BME280;64986;55.672;37.628;2023-10-31T10:52:44;99345.28;;;16.85;nan
76205;BME280;64986;55.672;37.628;2023-10-31T10:55:21;99344.88;;;16.33;nan
76205;BME280;64986;55.672;37.628;2023-10-31T10:58:05;99351.97;;;16.27;nan
76205;BME280;64986;55.672;37.628;2023-10-31T11:00:31;99345.22;;;15.52;nan
76205;BME280;64986;55.672;37.628;2023-10-31T11:02:57;99348.94;;;15.06;nan
76205;BME280;64986;55.672;37.628;2023-10-31T11:05:24;99337.50;;;14.77;nan
76205;BME280;64986;55.672;37.628;2023-10-31T11:07:52;99344.63;;;14.25;nan
76205;BME280;64986;55.672;37.628;2023-10-31T11:10:18;99354.06;;;13.97;nan
76205;BME280;64986;55.672;37.628;2023-10-31T11:12:44;99359.94;;;13.76;nan
76205;BME280;64986;55.672;37.628;2023-10-31T11:15:12;99363.81;;;13.73;nan
76205;BME280;64986;55.672;37.628;2023-10-31T11:17:42;99349.41;;;15.03;nan
76205;BME280;64986;55.672;37.628;2023-10-31T11:20:14;99344.97;;;16.21;nan
76205;BME280;64986;55.672;37.628;2023-10-31T11:22:42;99351.75;;;16.12;nan
76205;BME280;64986;55.672;37.628;2023-10-31T11:25:12;99347.72;;;16.26;nan
76205;BME280;64986;55.672;37.628;2023-10-31T11:27:38;99351.13;;;16.65;nan
76205;BME280;64986;55.672;37.628;2023-10-31T11:30:29;99324.94;;;17.55;nan
76205;BME280;64986;55.672;37.628;2023-10-31T11:32:58;99345.28;;;18.03;nan
76205;BME280;64986;55.672;37.628;2023-10-31T11:35:24;99343.59;;;17.60;nan
76205;BME280;64986;55.672;37.628;2023-10-31T11:38:01;99355.72;;;16.48;nan
76205;BME280;64986;55.672;37.628;2023-10-31T11:40:28;99356.22;;;15.27;nan
76205;BME280;64986;55.672;37.628;2023-10-31T11:42:56;99343.56;;;14.61;nan
76205;BME280;64986;55.672;37.628;2023-10-31T11:45:44;99346.56;;;14.93;nan
76205;BME280;64986;55.672;37.628;2023-10-31T11:48:12;99354.81;;;15.08;nan
76205;BME280;64986;55.672;37.628;2023-10-31T11:50:38;99354.41;;;15.45;nan
76205;BME280;64986;55.672;37.628;2023-10-31T11:53:12;99350.16;;;15.77;nan
76205;BME280;64986;55.672;37.628;2023-10-31T11:55:46;99346.72;;;16.71;nan
76205;BME280;64986;55.672;37.628;2023-10-31T11:58:22;99352.50;;;16.90;nan
76205;BME280;64986;55.672;37.628;2023-10-31T12:00:49;99354.09;;;16.69;nan
76205;BME280;64986;55.672;37.628;2023-10-31T12:03:20;99336.56;;;15.91;nan
76205;BME280;64986;55.672;37.628;2023-10-31T12:05:59;99356.63;;;15.36;nan
76205;BME280;64986;55.672;37.628;2023-10-31T12:08:34;99349.06;;;14.99;nan
76205;BME280;64986;55.672;37.628;2023-10-31T12:11:10;99348.06;;;14.37;nan
76205;BME280;64986;55.672;37.628;2023-10-31T12:13:38;99346.66;;;14.34;nan
76205;BME280;64986;55.672;37.628;2023-10-31T12:16:05;99342.66;;;14.20;nan
76205;BME280;64986;55.672;37.628;2023-10-31T12:18:33;99340.03;;;13.85;nan
76205;BME280;64986;55.672;37.628;2023-10-31T12:20:58;99341.53;;;13.93;nan
76205;BME280;64986;55.672;37.628;2023-10-31T12:23:24;99348.06;;;13.90;nan
76205;BME280;64986;55.672;37.628;2023-10-31T12:25:53;99354.59;;;13.64;nan
76205;BME280;64986;55.672;37.628;2023-10-31T12:28:23;99349.31;;;13.64;nan
76205;BME280;64986;55.672;37.628;2023-10-31T12:30:51;99353.81;;;13.64;nan
76205;BME280;64986;55.672;37.628;2023-10-31T12:33:20;99351.69;;;13.42;nan
76205;BME280;64986;55.672;37.628;2023-10-31T12:35:48;99353.28;;;13.13;nan
76205;BME280;64986;55.672;37.628;2023-10-31T12:38:14;99363.28;;;12.63;nan
76205;BME280;64986;55.672;37.628;2023-10-31T12:40:41;99367.75;;;12.01;nan
76205;BME280;64986;55.672;37.628;2023-10-31T12:43:08;99360.69;;;11.45;nan
76205;BME280;64986;55.672;37.628;2023-10-31T12:45:35;99361.44;;;11.20;nan
76205;BME280;64986;55.672;37.628;2023-10-31T12:48:05;99357.38;;;11.18;nan
76205;BME280;64986;55.672;37.628;2023-10-31T12:50:33;99366.31;;;11.17;nan
76205;BME280;64986;55.672;37.628;2023-10-31T12:53:00;99361.16;;;10.97;nan
76205;BME280;64986;55.672;37.628;2023-10-31T12:55:27;99367.25;;;10.91;nan
76205;BME280;64986;55.672;37.628;2023-10-31T12:57:57;99376.81;;;10.85;nan
76205;BME280;64986;55.672;37.628;2023-10-31T13:00:31;99373.91;;;11.00;nan
76205;BME280;64986;55.672;37.628;2023-10-31T13:03:08;99338.38;;;10.71;nan
76205;BME280;64986;55.672;37.628;2023-10-31T13:05:34;99364.66;;;10.84;nan
76205;BME280;64986;55.672;37.628;2023-10-31T13:08:01;99376.81;;;10.85;nan
76205;BME280;64986;55.672;37.628;2023-10-31T13:10:30;99378.03;;;10.82;nan
76205;BME280;64986;55.672;37.628;2023-10-31T13:12:56;99373.16;;;10.79;nan